Main page
METAR-TAF:

METAR-TAF

Airports :

RAF Wittering

Wittering, England

latitude: 52-37N, longitude: 000-28W, elevation: 84 m

Current weather observation

The report was made 32 minutes ago, at 20:50 UTC
Wind 21 kt from the South with gusts up to 31 kt
Temperature 18°C
Humidity 83%
Pressure 997 hPa
Visibility 10 km or more

METAR: EGXT 202050Z AUTO 19021G31KT 9999 FEW024/// BKN090/// 18/15 Q0997

Time: 22:22 (21:22 UTC)

Forecast

The report was made 7 hours and 9 minutes ago, at 14:13 UTC
Forecast valid from 20 at 15 UTC to 20 at 18 UTC
Wind 15 kt from the South/Southwest with gusts up to 25 kt
Visibility 10 km or more
Broken clouds at a height of 1800 ft
Becoming
from 20 at 15 UTC to 20 at 17 UTC
Wind 22 kt from the South/Southwest with gusts up to 35 kt
Temporary
from 20 at 17 UTC to 20 at 18 UTC
Few clouds at a height of 1800 ft

TAF: EGXT 201413Z 2015/2018 20015G25KT 9999 BKN018 BECMG 2015/2017 20022G35KT TEMPO 2017/2018 FEW018

Weather observations and forecasts of more than 4000 airports (METAR and TAF reports).

The available stations are represented by yellow and red dots on the map.

Hover mouse over dot to see the name of the station.

Then click to see weather observations and forecasts.

To change the map : click on the green buttons with a black cross to zoom in, on the green button with a dash to zoom out, or on the green arrows for adjacent maps.


METAR-TAF: